sensor_id;sensor_type;location;lat;lon;timestamp;P1;durP1;ratioP1;P2;durP2;ratioP2
11681;SDS011;5897;42.640;23.310;2022-09-09T00:00:40;9.02;;;8.05;;
11681;SDS011;5897;42.640;23.310;2022-09-09T00:03:12;10.05;;;7.78;;
11681;SDS011;5897;42.640;23.310;2022-09-09T00:05:46;10.00;;;8.30;;
11681;SDS011;5897;42.640;23.310;2022-09-09T00:08:24;8.23;;;7.35;;
11681;SDS011;5897;42.640;23.310;2022-09-09T00:10:59;11.35;;;8.27;;
11681;SDS011;5897;42.640;23.310;2022-09-09T00:13:31;9.23;;;8.32;;
11681;SDS011;5897;42.640;23.310;2022-09-09T00:16:03;7.82;;;7.10;;
11681;SDS011;5897;42.640;23.310;2022-09-09T00:18:39;9.27;;;8.40;;
11681;SDS011;5897;42.640;23.310;2022-09-09T00:21:11;9.02;;;7.90;;
11681;SDS011;5897;42.640;23.310;2022-09-09T00:23:42;8.50;;;7.70;;
11681;SDS011;5897;42.640;23.310;2022-09-09T00:26:14;10.93;;;8.10;;
11681;SDS011;5897;42.640;23.310;2022-09-09T00:28:50;8.63;;;7.65;;
11681;SDS011;5897;42.640;23.310;2022-09-09T00:31:26;8.82;;;7.93;;
11681;SDS011;5897;42.640;23.310;2022-09-09T00:33:56;7.90;;;7.10;;
11681;SDS011;5897;42.640;23.310;2022-09-09T00:36:30;8.35;;;7.53;;
11681;SDS011;5897;42.640;23.310;2022-09-09T00:39:01;8.48;;;7.68;;
11681;SDS011;5897;42.640;23.310;2022-09-09T00:41:31;8.70;;;7.60;;
11681;SDS011;5897;42.640;23.310;2022-09-09T00:44:17;9.68;;;8.68;;
11681;SDS011;5897;42.640;23.310;2022-09-09T00:46:56;11.90;;;8.77;;
11681;SDS011;5897;42.640;23.310;2022-09-09T00:49:36;8.45;;;7.65;;
11681;SDS011;5897;42.640;23.310;2022-09-09T00:52:16;9.00;;;8.10;;
11681;SDS011;5897;42.640;23.310;2022-09-09T00:54:53;8.80;;;7.75;;
11681;SDS011;5897;42.640;23.310;2022-09-09T00:57:30;8.15;;;7.43;;
11681;SDS011;5897;42.640;23.310;2022-09-09T01:00:00;8.88;;;7.97;;
11681;SDS011;5897;42.640;23.310;2022-09-09T01:02:59;8.23;;;7.47;;
11681;SDS011;5897;42.640;23.310;2022-09-09T01:05:38;9.95;;;8.35;;
11681;SDS011;5897;42.640;23.310;2022-09-09T01:08:14;9.57;;;7.55;;
11681;SDS011;5897;42.640;23.310;2022-09-09T01:10:55;9.55;;;8.02;;
11681;SDS011;5897;42.640;23.310;2022-09-09T01:13:25;8.30;;;7.50;;
11681;SDS011;5897;42.640;23.310;2022-09-09T01:15:55;8.30;;;7.50;;
11681;SDS011;5897;42.640;23.310;2022-09-09T01:18:26;9.68;;;8.68;;
11681;SDS011;5897;42.640;23.310;2022-09-09T01:20:57;9.77;;;8.15;;
11681;SDS011;5897;42.640;23.310;2022-09-09T01:23:41;9.13;;;8.23;;
11681;SDS011;5897;42.640;23.310;2022-09-09T01:26:26;8.57;;;7.85;;
11681;SDS011;5897;42.640;23.310;2022-09-09T01:28:54;10.13;;;8.30;;
11681;SDS011;5897;42.640;23.310;2022-09-09T01:31:22;8.90;;;8.00;;
11681;SDS011;5897;42.640;23.310;2022-09-09T01:33:53;11.50;;;8.50;;
11681;SDS011;5897;42.640;23.310;2022-09-09T01:36:23;9.20;;;8.25;;
11681;SDS011;5897;42.640;23.310;2022-09-09T01:38:55;8.75;;;8.00;;
11681;SDS011;5897;42.640;23.310;2022-09-09T01:41:22;10.10;;;8.23;;
11681;SDS011;5897;42.640;23.310;2022-09-09T01:43:52;8.88;;;8.07;;
11681;SDS011;5897;42.640;23.310;2022-09-09T01:46:21;9.35;;;8.43;;
11681;SDS011;5897;42.640;23.310;2022-09-09T01:48:49;10.27;;;8.13;;
11681;SDS011;5897;42.640;23.310;2022-09-09T01:51:17;9.18;;;8.27;;
11681;SDS011;5897;42.640;23.310;2022-09-09T01:53:44;9.55;;;8.05;;
11681;SDS011;5897;42.640;23.310;2022-09-09T01:56:15;9.05;;;8.15;;
11681;SDS011;5897;42.640;23.310;2022-09-09T01:58:55;9.38;;;8.48;;
11681;SDS011;5897;42.640;23.310;2022-09-09T02:01:34;11.23;;;8.70;;
11681;SDS011;5897;42.640;23.310;2022-09-09T02:04:20;9.00;;;8.20;;
11681;SDS011;5897;42.640;23.310;2022-09-09T02:06:56;9.38;;;8.38;;
11681;SDS011;5897;42.640;23.310;2022-09-09T02:09:24;9.70;;;8.85;;
11681;SDS011;5897;42.640;23.310;2022-09-09T02:11:53;9.32;;;8.30;;
11681;SDS011;5897;42.640;23.310;2022-09-09T02:14:28;12.02;;;8.80;;
11681;SDS011;5897;42.640;23.310;2022-09-09T02:16:59;10.35;;;9.38;;
11681;SDS011;5897;42.640;23.310;2022-09-09T02:19:30;10.00;;;8.85;;
11681;SDS011;5897;42.640;23.310;2022-09-09T02:21:59;9.55;;;8.55;;
11681;SDS011;5897;42.640;23.310;2022-09-09T02:24:28;10.55;;;9.60;;
11681;SDS011;5897;42.640;23.310;2022-09-09T02:26:58;10.40;;;8.48;;
11681;SDS011;5897;42.640;23.310;2022-09-09T02:29:31;9.65;;;8.82;;
11681;SDS011;5897;42.640;23.310;2022-09-09T02:32:01;9.13;;;8.23;;
11681;SDS011;5897;42.640;23.310;2022-09-09T02:34:31;11.20;;;9.38;;
11681;SDS011;5897;42.640;23.310;2022-09-09T02:37:02;10.15;;;9.18;;
11681;SDS011;5897;42.640;23.310;2022-09-09T02:39:30;9.80;;;8.80;;
11681;SDS011;5897;42.640;23.310;2022-09-09T02:41:56;10.80;;;9.43;;
11681;SDS011;5897;42.640;23.310;2022-09-09T02:44:23;11.05;;;9.77;;
11681;SDS011;5897;42.640;23.310;2022-09-09T02:47:00;10.57;;;9.48;;
11681;SDS011;5897;42.640;23.310;2022-09-09T02:49:43;10.20;;;9.30;;
11681;SDS011;5897;42.640;23.310;2022-09-09T02:52:26;13.05;;;9.82;;
11681;SDS011;5897;42.640;23.310;2022-09-09T02:54:59;10.43;;;9.32;;
11681;SDS011;5897;42.640;23.310;2022-09-09T02:57:34;9.85;;;8.80;;
11681;SDS011;5897;42.640;23.310;2022-09-09T03:00:02;10.07;;;9.13;;
11681;SDS011;5897;42.640;23.310;2022-09-09T03:02:31;9.75;;;8.85;;
11681;SDS011;5897;42.640;23.310;2022-09-09T03:04:58;10.05;;;9.05;;
11681;SDS011;5897;42.640;23.310;2022-09-09T03:07:25;12.80;;;8.75;;
11681;SDS011;5897;42.640;23.310;2022-09-09T03:09:52;10.85;;;9.20;;
11681;SDS011;5897;42.640;23.310;2022-09-09T03:12:19;11.00;;;8.85;;
11681;SDS011;5897;42.640;23.310;2022-09-09T03:14:46;10.65;;;9.60;;
11681;SDS011;5897;42.640;23.310;2022-09-09T03:17:13;10.45;;;9.45;;
11681;SDS011;5897;42.640;23.310;2022-09-09T03:19:41;10.30;;;9.40;;
11681;SDS011;5897;42.640;23.310;2022-09-09T03:22:11;13.73;;;9.68;;
11681;SDS011;5897;42.640;23.310;2022-09-09T03:24:38;11.30;;;9.98;;
11681;SDS011;5897;42.640;23.310;2022-09-09T03:27:05;10.77;;;9.77;;
11681;SDS011;5897;42.640;23.310;2022-09-09T03:29:32;15.18;;;9.98;;
11681;SDS011;5897;42.640;23.310;2022-09-09T03:31:59;12.77;;;10.15;;
11681;SDS011;5897;42.640;23.310;2022-09-09T03:34:25;10.07;;;8.98;;
11681;SDS011;5897;42.640;23.310;2022-09-09T03:36:54;10.88;;;9.38;;
11681;SDS011;5897;42.640;23.310;2022-09-09T03:39:20;10.40;;;9.38;;
11681;SDS011;5897;42.640;23.310;2022-09-09T03:41:47;11.02;;;9.93;;
11681;SDS011;5897;42.640;23.310;2022-09-09T03:44:14;9.98;;;8.93;;
11681;SDS011;5897;42.640;23.310;2022-09-09T03:46:41;10.18;;;9.20;;
11681;SDS011;5897;42.640;23.310;2022-09-09T03:49:08;11.10;;;9.43;;
11681;SDS011;5897;42.640;23.310;2022-09-09T03:51:35;11.90;;;9.50;;
11681;SDS011;5897;42.640;23.310;2022-09-09T03:54:05;16.00;;;10.38;;
11681;SDS011;5897;42.640;23.310;2022-09-09T03:56:33;13.18;;;9.02;;
11681;SDS011;5897;42.640;23.310;2022-09-09T03:59:01;14.15;;;9.52;;
11681;SDS011;5897;42.640;23.310;2022-09-09T04:01:28;11.05;;;8.93;;
11681;SDS011;5897;42.640;23.310;2022-09-09T04:03:54;10.30;;;9.30;;
11681;SDS011;5897;42.640;23.310;2022-09-09T04:06:23;10.10;;;8.93;;
11681;SDS011;5897;42.640;23.310;2022-09-09T04:08:51;10.77;;;9.20;;
11681;SDS011;5897;42.640;23.310;2022-09-09T04:11:19;10.43;;;9.05;;
11681;SDS011;5897;42.640;23.310;2022-09-09T04:13:46;14.00;;;9.73;;
11681;SDS011;5897;42.640;23.310;2022-09-09T04:16:14;10.77;;;9.68;;
11681;SDS011;5897;42.640;23.310;2022-09-09T04:18:41;12.38;;;9.48;;
11681;SDS011;5897;42.640;23.310;2022-09-09T04:21:08;11.00;;;9.77;;
11681;SDS011;5897;42.640;23.310;2022-09-09T04:23:37;9.65;;;8.75;;
11681;SDS011;5897;42.640;23.310;2022-09-09T04:26:04;10.77;;;9.68;;
11681;SDS011;5897;42.640;23.310;2022-09-09T04:28:34;10.45;;;9.30;;
11681;SDS011;5897;42.640;23.310;2022-09-09T04:31:06;11.02;;;9.65;;
11681;SDS011;5897;42.640;23.310;2022-09-09T04:33:34;10.65;;;9.52;;
11681;SDS011;5897;42.640;23.310;2022-09-09T04:36:01;13.23;;;10.18;;
11681;SDS011;5897;42.640;23.310;2022-09-09T04:38:28;11.25;;;9.65;;
11681;SDS011;5897;42.640;23.310;2022-09-09T04:40:54;11.82;;;9.95;;
11681;SDS011;5897;42.640;23.310;2022-09-09T04:43:22;12.00;;;10.80;;
11681;SDS011;5897;42.640;23.310;2022-09-09T04:45:52;14.65;;;11.05;;
11681;SDS011;5897;42.640;23.310;2022-09-09T04:48:18;12.07;;;10.93;;
11681;SDS011;5897;42.640;23.310;2022-09-09T04:50:53;12.48;;;10.38;;
11681;SDS011;5897;42.640;23.310;2022-09-09T04:53:21;12.50;;;11.20;;
11681;SDS011;5897;42.640;23.310;2022-09-09T04:55:48;13.57;;;11.10;;
11681;SDS011;5897;42.640;23.310;2022-09-09T04:58:15;11.63;;;10.40;;
11681;SDS011;5897;42.640;23.310;2022-09-09T05:00:42;14.88;;;10.23;;
11681;SDS011;5897;42.640;23.310;2022-09-09T05:03:10;14.32;;;10.82;;
11681;SDS011;5897;42.640;23.310;2022-09-09T05:05:37;13.23;;;11.10;;
11681;SDS011;5897;42.640;23.310;2022-09-09T05:08:05;15.60;;;11.10;;
11681;SDS011;5897;42.640;23.310;2022-09-09T05:10:33;12.35;;;10.88;;
11681;SDS011;5897;42.640;23.310;2022-09-09T05:13:02;11.35;;;10.02;;
11681;SDS011;5897;42.640;23.310;2022-09-09T05:15:29;10.90;;;9.90;;
11681;SDS011;5897;42.640;23.310;2022-09-09T05:17:56;16.92;;;9.73;;
11681;SDS011;5897;42.640;23.310;2022-09-09T05:20:25;11.60;;;10.25;;
11681;SDS011;5897;42.640;23.310;2022-09-09T05:22:52;13.77;;;10.95;;
11681;SDS011;5897;42.640;23.310;2022-09-09T05:25:20;13.48;;;11.77;;
11681;SDS011;5897;42.640;23.310;2022-09-09T05:27:47;18.17;;;11.55;;
11681;SDS011;5897;42.640;23.310;2022-09-09T05:30:14;12.25;;;10.90;;
11681;SDS011;5897;42.640;23.310;2022-09-09T05:32:41;14.85;;;10.57;;
11681;SDS011;5897;42.640;23.310;2022-09-09T05:35:08;13.75;;;10.95;;
11681;SDS011;5897;42.640;23.310;2022-09-09T05:37:36;15.43;;;11.20;;
11681;SDS011;5897;42.640;23.310;2022-09-09T05:40:03;14.63;;;10.82;;
11681;SDS011;5897;42.640;23.310;2022-09-09T05:42:30;13.80;;;10.85;;
11681;SDS011;5897;42.640;23.310;2022-09-09T05:44:57;16.13;;;10.75;;
11681;SDS011;5897;42.640;23.310;2022-09-09T05:47:24;13.05;;;10.52;;
11681;SDS011;5897;42.640;23.310;2022-09-09T05:49:52;16.02;;;11.13;;
11681;SDS011;5897;42.640;23.310;2022-09-09T05:52:20;22.58;;;11.95;;
11681;SDS011;5897;42.640;23.310;2022-09-09T05:54:49;17.70;;;11.38;;
11681;SDS011;5897;42.640;23.310;2022-09-09T05:57:15;13.35;;;10.57;;
11681;SDS011;5897;42.640;23.310;2022-09-09T05:59:44;17.27;;;10.35;;
11681;SDS011;5897;42.640;23.310;2022-09-09T06:02:11;17.02;;;10.48;;
11681;SDS011;5897;42.640;23.310;2022-09-09T06:04:38;11.93;;;9.27;;
11681;SDS011;5897;42.640;23.310;2022-09-09T06:07:05;15.55;;;10.30;;
11681;SDS011;5897;42.640;23.310;2022-09-09T06:09:32;14.82;;;10.40;;
11681;SDS011;5897;42.640;23.310;2022-09-09T06:12:00;16.13;;;9.75;;
11681;SDS011;5897;42.640;23.310;2022-09-09T06:14:27;21.95;;;10.32;;
11681;SDS011;5897;42.640;23.310;2022-09-09T06:16:53;17.90;;;9.20;;
11681;SDS011;5897;42.640;23.310;2022-09-09T06:19:21;16.15;;;9.45;;
11681;SDS011;5897;42.640;23.310;2022-09-09T06:21:49;13.77;;;9.82;;
11681;SDS011;5897;42.640;23.310;2022-09-09T06:24:16;14.77;;;9.32;;
11681;SDS011;5897;42.640;23.310;2022-09-09T06:26:44;11.43;;;9.85;;
11681;SDS011;5897;42.640;23.310;2022-09-09T06:29:12;10.50;;;9.00;;
11681;SDS011;5897;42.640;23.310;2022-09-09T06:31:39;13.55;;;9.10;;
11681;SDS011;5897;42.640;23.310;2022-09-09T06:34:06;10.57;;;8.68;;
11681;SDS011;5897;42.640;23.310;2022-09-09T06:36:34;11.15;;;9.35;;
11681;SDS011;5897;42.640;23.310;2022-09-09T06:39:03;13.18;;;9.73;;
11681;SDS011;5897;42.640;23.310;2022-09-09T06:41:31;15.50;;;10.30;;
11681;SDS011;5897;42.640;23.310;2022-09-09T06:43:59;15.32;;;8.68;;
11681;SDS011;5897;42.640;23.310;2022-09-09T06:46:28;12.38;;;8.73;;
11681;SDS011;5897;42.640;23.310;2022-09-09T06:48:57;11.73;;;8.93;;
11681;SDS011;5897;42.640;23.310;2022-09-09T06:51:25;9.93;;;7.70;;
11681;SDS011;5897;42.640;23.310;2022-09-09T06:53:53;12.35;;;7.97;;
11681;SDS011;5897;42.640;23.310;2022-09-09T06:56:22;8.90;;;7.65;;
11681;SDS011;5897;42.640;23.310;2022-09-09T06:58:51;12.90;;;8.50;;
11681;SDS011;5897;42.640;23.310;2022-09-09T07:01:20;14.02;;;8.48;;
11681;SDS011;5897;42.640;23.310;2022-09-09T07:03:50;13.20;;;8.32;;
11681;SDS011;5897;42.640;23.310;2022-09-09T07:06:19;12.02;;;8.15;;
11681;SDS011;5897;42.640;23.310;2022-09-09T07:08:49;10.25;;;7.90;;
11681;SDS011;5897;42.640;23.310;2022-09-09T07:11:17;12.77;;;8.57;;
11681;SDS011;5897;42.640;23.310;2022-09-09T07:13:45;13.38;;;7.50;;
11681;SDS011;5897;42.640;23.310;2022-09-09T07:16:12;13.27;;;7.75;;
11681;SDS011;5897;42.640;23.310;2022-09-09T07:18:41;10.48;;;6.95;;
11681;SDS011;5897;42.640;23.310;2022-09-09T07:21:10;14.88;;;7.68;;
11681;SDS011;5897;42.640;23.310;2022-09-09T07:23:38;9.07;;;6.72;;
11681;SDS011;5897;42.640;23.310;2022-09-09T07:26:07;8.82;;;7.18;;
11681;SDS011;5897;42.640;23.310;2022-09-09T07:28:36;10.50;;;6.43;;
11681;SDS011;5897;42.640;23.310;2022-09-09T07:31:04;14.48;;;7.53;;
11681;SDS011;5897;42.640;23.310;2022-09-09T07:33:32;14.90;;;7.10;;
11681;SDS011;5897;42.640;23.310;2022-09-09T07:36:03;7.53;;;6.55;;
11681;SDS011;5897;42.640;23.310;2022-09-09T07:38:38;8.02;;;6.20;;
11681;SDS011;5897;42.640;23.310;2022-09-09T07:41:07;12.27;;;6.82;;
11681;SDS011;5897;42.640;23.310;2022-09-09T07:43:37;10.18;;;6.60;;
11681;SDS011;5897;42.640;23.310;2022-09-09T07:46:04;11.15;;;6.20;;
11681;SDS011;5897;42.640;23.310;2022-09-09T07:48:31;7.22;;;6.05;;
11681;SDS011;5897;42.640;23.310;2022-09-09T07:51:05;8.18;;;6.10;;
11681;SDS011;5897;42.640;23.310;2022-09-09T07:53:33;11.45;;;6.85;;
11681;SDS011;5897;42.640;23.310;2022-09-09T07:56:07;10.88;;;6.28;;
11681;SDS011;5897;42.640;23.310;2022-09-09T07:58:35;13.13;;;6.15;;
11681;SDS011;5897;42.640;23.310;2022-09-09T08:01:06;7.40;;;6.60;;
11681;SDS011;5897;42.640;23.310;2022-09-09T08:03:34;10.30;;;6.43;;
11681;SDS011;5897;42.640;23.310;2022-09-09T08:06:01;7.03;;;5.85;;
11681;SDS011;5897;42.640;23.310;2022-09-09T08:08:28;7.80;;;6.00;;
11681;SDS011;5897;42.640;23.310;2022-09-09T08:11:01;11.23;;;6.10;;
11681;SDS011;5897;42.640;23.310;2022-09-09T08:13:30;7.15;;;5.68;;
11681;SDS011;5897;42.640;23.310;2022-09-09T08:16:03;6.90;;;5.55;;
11681;SDS011;5897;42.640;23.310;2022-09-09T08:18:31;10.63;;;5.80;;
11681;SDS011;5897;42.640;23.310;2022-09-09T08:21:04;10.38;;;5.50;;
11681;SDS011;5897;42.640;23.310;2022-09-09T08:23:31;8.90;;;5.38;;
11681;SDS011;5897;42.640;23.310;2022-09-09T08:26:02;8.35;;;6.30;;
11681;SDS011;5897;42.640;23.310;2022-09-09T08:28:32;9.55;;;6.00;;
11681;SDS011;5897;42.640;23.310;2022-09-09T08:31:04;11.80;;;5.95;;
11681;SDS011;5897;42.640;23.310;2022-09-09T08:33:32;7.93;;;5.20;;
11681;SDS011;5897;42.640;23.310;2022-09-09T08:35:59;9.70;;;5.82;;
11681;SDS011;5897;42.640;23.310;2022-09-09T08:38:25;7.00;;;5.90;;
11681;SDS011;5897;42.640;23.310;2022-09-09T08:40:53;9.88;;;6.07;;
11681;SDS011;5897;42.640;23.310;2022-09-09T08:43:29;7.80;;;6.35;;
11681;SDS011;5897;42.640;23.310;2022-09-09T08:46:00;8.73;;;5.50;;
11681;SDS011;5897;42.640;23.310;2022-09-09T08:48:40;10.43;;;6.00;;
11681;SDS011;5897;42.640;23.310;2022-09-09T08:51:13;9.38;;;5.72;;
11681;SDS011;5897;42.640;23.310;2022-09-09T08:53:41;10.65;;;5.82;;
11681;SDS011;5897;42.640;23.310;2022-09-09T08:56:11;8.90;;;6.25;;
11681;SDS011;5897;42.640;23.310;2022-09-09T08:58:43;10.15;;;5.88;;
11681;SDS011;5897;42.640;23.310;2022-09-09T09:01:35;10.27;;;6.22;;
11681;SDS011;5897;42.640;23.310;2022-09-09T09:04:15;6.22;;;5.15;;
11681;SDS011;5897;42.640;23.310;2022-09-09T09:06:59;13.55;;;6.07;;
11681;SDS011;5897;42.640;23.310;2022-09-09T09:09:38;10.70;;;6.60;;
11681;SDS011;5897;42.640;23.310;2022-09-09T09:12:15;8.88;;;5.57;;
11681;SDS011;5897;42.640;23.310;2022-09-09T09:14:47;9.18;;;5.70;;
11681;SDS011;5897;42.640;23.310;2022-09-09T09:17:15;14.95;;;5.43;;
11681;SDS011;5897;42.640;23.310;2022-09-09T09:19:44;12.93;;;6.18;;
11681;SDS011;5897;42.640;23.310;2022-09-09T09:22:14;9.93;;;6.90;;
11681;SDS011;5897;42.640;23.310;2022-09-09T09:24:47;8.95;;;5.75;;
11681;SDS011;5897;42.640;23.310;2022-09-09T09:27:19;9.15;;;5.85;;
11681;SDS011;5897;42.640;23.310;2022-09-09T09:29:55;7.60;;;5.05;;
11681;SDS011;5897;42.640;23.310;2022-09-09T09:32:24;10.30;;;5.80;;
11681;SDS011;5897;42.640;23.310;2022-09-09T09:34:54;6.82;;;5.00;;
11681;SDS011;5897;42.640;23.310;2022-09-09T09:37:25;7.10;;;4.57;;
11681;SDS011;5897;42.640;23.310;2022-09-09T09:39:54;10.77;;;5.15;;
11681;SDS011;5897;42.640;23.310;2022-09-09T09:42:21;7.65;;;4.90;;
11681;SDS011;5897;42.640;23.310;2022-09-09T09:44:48;9.00;;;4.88;;
11681;SDS011;5897;42.640;23.310;2022-09-09T09:47:17;7.53;;;4.95;;
11681;SDS011;5897;42.640;23.310;2022-09-09T09:49:51;9.60;;;5.03;;
11681;SDS011;5897;42.640;23.310;2022-09-09T09:52:21;9.77;;;5.10;;
11681;SDS011;5897;42.640;23.310;2022-09-09T09:54:49;7.93;;;4.78;;
11681;SDS011;5897;42.640;23.310;2022-09-09T09:57:16;8.25;;;4.95;;
11681;SDS011;5897;42.640;23.310;2022-09-09T09:59:45;14.30;;;8.25;;
11681;SDS011;5897;42.640;23.310;2022-09-09T10:02:17;11.55;;;6.47;;
11681;SDS011;5897;42.640;23.310;2022-09-09T10:04:48;9.25;;;5.18;;
11681;SDS011;5897;42.640;23.310;2022-09-09T10:07:17;10.93;;;6.68;;
11681;SDS011;5897;42.640;23.310;2022-09-09T10:09:52;8.05;;;4.70;;
11681;SDS011;5897;42.640;23.310;2022-09-09T10:12:24;7.68;;;5.68;;
11681;SDS011;5897;42.640;23.310;2022-09-09T10:15:07;7.22;;;4.72;;
11681;SDS011;5897;42.640;23.310;2022-09-09T10:17:56;8.15;;;5.00;;
11681;SDS011;5897;42.640;23.310;2022-09-09T10:20:36;6.35;;;4.63;;
11681;SDS011;5897;42.640;23.310;2022-09-09T10:23:13;7.60;;;5.07;;
11681;SDS011;5897;42.640;23.310;2022-09-09T10:26:03;7.18;;;5.10;;
11681;SDS011;5897;42.640;23.310;2022-09-09T10:28:45;7.93;;;4.88;;
11681;SDS011;5897;42.640;23.310;2022-09-09T10:31:31;12.38;;;5.65;;
11681;SDS011;5897;42.640;23.310;2022-09-09T10:34:08;15.88;;;5.50;;
11681;SDS011;5897;42.640;23.310;2022-09-09T10:36:46;11.90;;;5.07;;
11681;SDS011;5897;42.640;23.310;2022-09-09T10:39:17;7.05;;;5.35;;
11681;SDS011;5897;42.640;23.310;2022-09-09T10:41:53;10.07;;;5.20;;
11681;SDS011;5897;42.640;23.310;2022-09-09T10:44:32;8.07;;;5.40;;
11681;SDS011;5897;42.640;23.310;2022-09-09T10:47:33;10.95;;;4.95;;
11681;SDS011;5897;42.640;23.310;2022-09-09T10:50:14;11.98;;;5.55;;
11681;SDS011;5897;42.640;23.310;2022-09-09T10:52:55;10.55;;;4.47;;
11681;SDS011;5897;42.640;23.310;2022-09-09T10:55:35;6.88;;;4.97;;
11681;SDS011;5897;42.640;23.310;2022-09-09T10:58:05;7.82;;;4.78;;
11681;SDS011;5897;42.640;23.310;2022-09-09T11:00:38;8.15;;;4.97;;
11681;SDS011;5897;42.640;23.310;2022-09-09T11:03:11;11.27;;;5.57;;
11681;SDS011;5897;42.640;23.310;2022-09-09T11:05:47;8.80;;;5.30;;
11681;SDS011;5897;42.640;23.310;2022-09-09T11:08:18;11.90;;;5.50;;
11681;SDS011;5897;42.640;23.310;2022-09-09T11:10:48;12.48;;;5.22;;
11681;SDS011;5897;42.640;23.310;2022-09-09T11:13:22;8.15;;;5.28;;
11681;SDS011;5897;42.640;23.310;2022-09-09T11:15:55;8.60;;;4.90;;
11681;SDS011;5897;42.640;23.310;2022-09-09T11:18:26;10.40;;;5.82;;
11681;SDS011;5897;42.640;23.310;2022-09-09T11:20:58;9.82;;;5.38;;
11681;SDS011;5897;42.640;23.310;2022-09-09T11:23:29;7.25;;;5.50;;
11681;SDS011;5897;42.640;23.310;2022-09-09T11:26:06;13.57;;;7.80;;
11681;SDS011;5897;42.640;23.310;2022-09-09T11:28:40;8.57;;;6.82;;
11681;SDS011;5897;42.640;23.310;2022-09-09T11:31:21;10.90;;;6.80;;
11681;SDS011;5897;42.640;23.310;2022-09-09T11:34:06;6.97;;;5.43;;
11681;SDS011;5897;42.640;23.310;2022-09-09T11:36:54;14.50;;;5.80;;
11681;SDS011;5897;42.640;23.310;2022-09-09T11:39:36;13.02;;;7.13;;
11681;SDS011;5897;42.640;23.310;2022-09-09T11:42:15;26.00;;;23.45;;
11681;SDS011;5897;42.640;23.310;2022-09-09T11:44:49;11.77;;;8.48;;
11681;SDS011;5897;42.640;23.310;2022-09-09T11:47:19;10.40;;;7.50;;
11681;SDS011;5897;42.640;23.310;2022-09-09T11:49:49;11.70;;;7.63;;
11681;SDS011;5897;42.640;23.310;2022-09-09T11:52:22;10.88;;;8.80;;
11681;SDS011;5897;42.640;23.310;2022-09-09T11:54:54;16.23;;;6.75;;
11681;SDS011;5897;42.640;23.310;2022-09-09T11:57:23;11.48;;;8.23;;
11681;SDS011;5897;42.640;23.310;2022-09-09T11:59:56;15.18;;;7.28;;
11681;SDS011;5897;42.640;23.310;2022-09-09T12:02:24;16.33;;;6.22;;
11681;SDS011;5897;42.640;23.310;2022-09-09T12:04:56;9.38;;;6.00;;
11681;SDS011;5897;42.640;23.310;2022-09-09T12:07:31;10.15;;;6.10;;
11681;SDS011;5897;42.640;23.310;2022-09-09T12:10:02;12.48;;;6.10;;
11681;SDS011;5897;42.640;23.310;2022-09-09T12:12:33;10.40;;;6.30;;
11681;SDS011;5897;42.640;23.310;2022-09-09T12:17:46;9.60;;;6.88;;
11681;SDS011;5897;42.640;23.310;2022-09-09T12:20:16;11.25;;;5.95;;
11681;SDS011;5897;42.640;23.310;2022-09-09T12:25:48;10.20;;;6.63;;
11681;SDS011;5897;42.640;23.310;2022-09-09T12:28:25;10.10;;;5.47;;
11681;SDS011;5897;42.640;23.310;2022-09-09T12:31:01;8.18;;;6.20;;
11681;SDS011;5897;42.640;23.310;2022-09-09T12:33:34;8.32;;;6.00;;
11681;SDS011;5897;42.640;23.310;2022-09-09T12:36:02;9.27;;;6.30;;
11681;SDS011;5897;42.640;23.310;2022-09-09T12:38:34;8.02;;;6.50;;
11681;SDS011;5897;42.640;23.310;2022-09-09T12:41:02;9.48;;;6.28;;
11681;SDS011;5897;42.640;23.310;2022-09-09T12:43:29;8.70;;;5.85;;
11681;SDS011;5897;42.640;23.310;2022-09-09T12:45:57;10.05;;;5.97;;
11681;SDS011;5897;42.640;23.310;2022-09-09T12:48:31;11.50;;;6.10;;
11681;SDS011;5897;42.640;23.310;2022-09-09T12:51:01;12.70;;;6.43;;
11681;SDS011;5897;42.640;23.310;2022-09-09T12:53:31;8.93;;;5.88;;
11681;SDS011;5897;42.640;23.310;2022-09-09T12:56:04;13.88;;;6.68;;
11681;SDS011;5897;42.640;23.310;2022-09-09T12:58:33;15.70;;;6.70;;
11681;SDS011;5897;42.640;23.310;2022-09-09T13:01:03;12.40;;;6.63;;
11681;SDS011;5897;42.640;23.310;2022-09-09T13:03:31;13.55;;;6.88;;
11681;SDS011;5897;42.640;23.310;2022-09-09T13:06:09;11.68;;;6.20;;
11681;SDS011;5897;42.640;23.310;2022-09-09T13:08:39;13.57;;;6.07;;
11681;SDS011;5897;42.640;23.310;2022-09-09T13:11:07;16.25;;;7.90;;
11681;SDS011;5897;42.640;23.310;2022-09-09T13:13:39;11.68;;;6.63;;
11681;SDS011;5897;42.640;23.310;2022-09-09T13:16:18;13.55;;;6.55;;
11681;SDS011;5897;42.640;23.310;2022-09-09T13:18:46;12.27;;;6.50;;
11681;SDS011;5897;42.640;23.310;2022-09-09T13:21:14;7.93;;;5.95;;
11681;SDS011;5897;42.640;23.310;2022-09-09T13:23:48;15.50;;;7.00;;
11681;SDS011;5897;42.640;23.310;2022-09-09T13:26:21;12.80;;;7.13;;
11681;SDS011;5897;42.640;23.310;2022-09-09T13:28:49;15.45;;;7.25;;
11681;SDS011;5897;42.640;23.310;2022-09-09T13:31:21;11.35;;;7.88;;
11681;SDS011;5897;42.640;23.310;2022-09-09T13:33:49;13.52;;;6.75;;
11681;SDS011;5897;42.640;23.310;2022-09-09T13:36:26;12.85;;;6.45;;
11681;SDS011;5897;42.640;23.310;2022-09-09T13:38:57;13.52;;;7.55;;
11681;SDS011;5897;42.640;23.310;2022-09-09T13:41:34;14.52;;;11.15;;
11681;SDS011;5897;42.640;23.310;2022-09-09T13:44:02;11.80;;;6.55;;
11681;SDS011;5897;42.640;23.310;2022-09-09T13:46:32;14.77;;;6.70;;
11681;SDS011;5897;42.640;23.310;2022-09-09T13:49:02;12.82;;;6.22;;
11681;SDS011;5897;42.640;23.310;2022-09-09T13:51:46;10.88;;;6.70;;
11681;SDS011;5897;42.640;23.310;2022-09-09T13:54:17;15.00;;;6.55;;
11681;SDS011;5897;42.640;23.310;2022-09-09T13:56:45;11.88;;;6.28;;
11681;SDS011;5897;42.640;23.310;2022-09-09T13:59:15;14.07;;;6.07;;
11681;SDS011;5897;42.640;23.310;2022-09-09T14:01:44;12.55;;;6.22;;
11681;SDS011;5897;42.640;23.310;2022-09-09T14:04:12;12.27;;;6.05;;
11681;SDS011;5897;42.640;23.310;2022-09-09T14:06:39;9.77;;;5.88;;
11681;SDS011;5897;42.640;23.310;2022-09-09T14:09:07;10.43;;;5.80;;
11681;SDS011;5897;42.640;23.310;2022-09-09T14:11:38;11.60;;;6.05;;
11681;SDS011;5897;42.640;23.310;2022-09-09T14:14:05;13.88;;;6.22;;
11681;SDS011;5897;42.640;23.310;2022-09-09T14:16:32;10.57;;;5.78;;
11681;SDS011;5897;42.640;23.310;2022-09-09T14:18:59;8.50;;;6.20;;
11681;SDS011;5897;42.640;23.310;2022-09-09T14:21:27;11.00;;;6.43;;
11681;SDS011;5897;42.640;23.310;2022-09-09T14:23:53;10.25;;;6.40;;
11681;SDS011;5897;42.640;23.310;2022-09-09T14:26:23;12.18;;;6.60;;
11681;SDS011;5897;42.640;23.310;2022-09-09T14:28:52;8.95;;;6.65;;
11681;SDS011;5897;42.640;23.310;2022-09-09T14:31:19;10.80;;;6.22;;
11681;SDS011;5897;42.640;23.310;2022-09-09T14:33:46;13.48;;;6.05;;
11681;SDS011;5897;42.640;23.310;2022-09-09T14:36:15;9.60;;;6.10;;
11681;SDS011;5897;42.640;23.310;2022-09-09T14:38:42;10.70;;;5.60;;
11681;SDS011;5897;42.640;23.310;2022-09-09T14:41:09;15.43;;;6.93;;
11681;SDS011;5897;42.640;23.310;2022-09-09T14:43:37;12.35;;;6.38;;
11681;SDS011;5897;42.640;23.310;2022-09-09T14:46:06;13.07;;;5.80;;
11681;SDS011;5897;42.640;23.310;2022-09-09T14:48:33;11.25;;;6.10;;
11681;SDS011;5897;42.640;23.310;2022-09-09T14:51:04;10.15;;;6.43;;
11681;SDS011;5897;42.640;23.310;2022-09-09T14:53:32;11.32;;;6.43;;
11681;SDS011;5897;42.640;23.310;2022-09-09T14:56:03;9.73;;;6.68;;
11681;SDS011;5897;42.640;23.310;2022-09-09T14:58:31;9.63;;;5.90;;
11681;SDS011;5897;42.640;23.310;2022-09-09T15:01:01;14.45;;;6.53;;
11681;SDS011;5897;42.640;23.310;2022-09-09T15:03:30;12.25;;;6.00;;
11681;SDS011;5897;42.640;23.310;2022-09-09T15:05:57;13.48;;;6.38;;